Time;durP1;ratioP1;P1;durP2;ratioP2;P2;SDS_P1;SDS_P2;PMS_P1;PMS_P2;Temp;Humidity;BMP_temperature;BMP_pressure;BME280_temperature;BME280_humidity;BME280_pressure;Samples;Min_cycle;Max_cycle;Signal;HPM_P1;HPM_P2
2020/12/19 00:01:31;;;;;;;19.20;3.63;;;;;;;8.79;76.17;98732.25;5051956;28;20483;-51
2020/12/19 00:04:18;;;;;;;16.88;3.30;;;;;;;8.80;76.15;98720.06;5078013;28;20040;-52
2020/12/19 00:07:05;;;;;;;19.35;3.75;;;;;;;8.79;76.00;98723.97;5088039;28;20506;-53
2020/12/19 00:09:51;;;;;;;15.30;2.80;;;;;;;8.77;76.10;98714.50;5071727;28;20538;-50
2020/12/19 00:12:39;;;;;;;10.63;3.08;;;;;;;8.75;76.08;98711.34;5052808;28;20079;-53
2020/12/19 00:15:26;;;;;;;17.23;2.42;;;;;;;8.79;76.09;98695.63;5068133;28;20041;-54
2020/12/19 00:18:13;;;;;;;10.77;2.72;;;;;;;8.85;75.82;98705.91;5069032;28;20062;-54
2020/12/19 00:21:00;;;;;;;13.93;3.53;;;;;;;8.87;75.87;98703.56;5072913;28;20048;-53
2020/12/19 00:23:46;;;;;;;10.15;2.03;;;;;;;8.92;75.60;98700.44;5059571;28;20139;-54
2020/12/19 00:26:38;;;;;;;8.88;2.28;;;;;;;8.97;75.58;98697.34;5074374;28;20052;-52
2020/12/19 00:29:24;;;;;;;16.50;6.53;;;;;;;9.02;75.67;98694.22;5069728;28;20044;-53
2020/12/19 00:32:11;;;;;;;14.90;2.97;;;;;;;9.05;75.68;98698.16;5068684;28;20037;-51
2020/12/19 00:35:12;;;;;;;16.15;2.78;;;;;;;9.06;75.97;98683.97;5071598;28;20056;-50
2020/12/19 00:37:59;;;;;;;16.65;4.97;;;;;;;9.06;75.86;98688.69;5074347;28;20123;-51
2020/12/19 00:40:45;;;;;;;17.80;3.55;;;;;;;9.05;75.92;98687.91;5073478;28;20051;-52
2020/12/19 00:43:32;;;;;;;16.23;3.83;;;;;;;9.07;75.93;98685.56;5074672;28;20051;-49
2020/12/19 00:46:20;;;;;;;13.63;3.92;;;;;;;9.07;76.22;98680.06;5063663;28;20044;-49
2020/12/19 00:49:07;;;;;;;12.13;2.60;;;;;;;9.10;76.46;98684.00;5080433;28;20048;-51
2020/12/19 00:51:54;;;;;;;15.27;3.55;;;;;;;9.07;76.62;98682.81;5079426;28;20056;-49
2020/12/19 00:54:40;;;;;;;21.50;2.88;;;;;;;9.04;77.03;98675.28;5094567;28;20039;-50
2020/12/19 00:57:34;;;;;;;17.00;3.20;;;;;;;9.05;77.35;98690.66;5080048;28;20566;-52
2020/12/19 01:00:20;;;;;;;24.35;3.83;;;;;;;9.04;77.51;98691.84;5094301;28;20477;-50
2020/12/19 01:03:07;;;;;;;16.58;3.97;;;;;;;9.04;77.67;98686.34;5085546;28;20127;-49
2020/12/19 01:05:53;;;;;;;13.70;2.85;;;;;;;9.06;77.71;98691.47;5093669;28;20245;-49
2020/12/19 01:08:41;;;;;;;18.25;4.15;;;;;;;9.06;77.81;98683.97;5093564;28;20121;-48
2020/12/19 01:11:45;;;;;;;12.30;3.25;;;;;;;9.07;77.96;98680.06;5083575;28;20120;-49
2020/12/19 01:14:32;;;;;;;14.77;3.72;;;;;;;9.08;77.71;98687.13;5093354;28;20135;-49
2020/12/19 01:17:19;;;;;;;12.35;3.97;;;;;;;9.08;77.79;98689.13;5074514;28;20046;-53
2020/12/19 01:20:05;;;;;;;9.77;1.73;;;;;;;9.10;77.54;98698.59;5054197;28;20419;-51
2020/12/19 01:22:52;;;;;;;8.35;1.70;;;;;;;9.13;77.34;98672.97;5053620;28;20044;-49
2020/12/19 01:25:39;;;;;;;4.63;2.13;;;;;;;9.15;77.05;98675.34;5054079;28;20077;-49
2020/12/19 01:28:25;;;;;;;4.03;0.82;;;;;;;9.15;77.20;98686.41;5054672;28;20502;-49
2020/12/19 01:31:14;;;;;;;4.85;0.93;;;;;;;9.16;77.10;98682.44;5054097;28;20045;-49
2020/12/19 01:34:01;;;;;;;4.75;1.15;;;;;;;9.13;77.42;98684.00;5077862;28;20105;-53
2020/12/19 01:36:48;;;;;;;8.13;1.00;;;;;;;9.14;77.47;98682.03;5079572;28;20045;-51
2020/12/19 01:39:34;;;;;;;5.05;1.00;;;;;;;9.09;77.49;98688.72;5053445;28;20037;-49
2020/12/19 01:42:21;;;;;;;3.92;0.85;;;;;;;9.04;77.69;98696.56;5053876;28;20405;-50
2020/12/19 01:45:07;;;;;;;8.43;1.58;;;;;;;9.01;77.72;98676.06;5053846;28;20391;-50
2020/12/19 01:47:55;;;;;;;6.82;1.27;;;;;;;8.99;77.62;98663.81;5042103;28;20182;-51
2020/12/19 01:50:42;;;;;;;7.93;0.85;;;;;;;8.95;77.81;98666.53;5072755;28;20041;-49
2020/12/19 01:53:30;;;;;;;2.55;0.60;;;;;;;8.94;77.68;98664.97;5068728;28;20186;-52
2020/12/19 01:56:24;;;;;;;5.18;0.50;;;;;;;8.91;77.37;98660.22;5052436;28;20059;-51
2020/12/19 01:59:14;;;;;;;1.50;0.50;;;;;;;8.91;76.98;98664.94;5053137;28;20057;-51
2020/12/19 02:02:08;;;;;;;2.25;0.63;;;;;;;8.90;77.11;98671.63;5063486;28;20045;-54
2020/12/19 02:04:55;;;;;;;6.50;1.15;;;;;;;8.89;77.11;98672.81;5072677;28;20052;-49
2020/12/19 02:07:41;;;;;;;2.90;0.60;;;;;;;8.90;76.99;98675.19;5068074;28;20047;-50
2020/12/19 02:10:32;;;;;;;1.48;0.20;;;;;;;8.89;76.77;98664.56;5065962;28;20044;-51
2020/12/19 02:13:24;;;;;;;2.75;0.13;;;;;;;8.91;76.86;98671.28;5073775;28;20040;-51
2020/12/19 02:16:19;;;;;;;0.55;0.30;;;;;;;8.89;76.47;98657.06;5072678;28;20577;-51
2020/12/19 02:19:12;;;;;;;2.47;0.30;;;;;;;8.90;76.42;98668.88;5085388;28;20133;-50
2020/12/19 02:22:00;;;;;;;3.22;1.00;;;;;;;8.92;76.55;98669.31;5092427;28;20059;-50
2020/12/19 02:24:47;;;;;;;3.47;0.77;;;;;;;8.90;76.45;98669.66;5093138;28;20063;-51
2020/12/19 02:27:34;;;;;;;1.63;0.45;;;;;;;8.89;76.67;98672.81;5082654;28;20410;-49
2020/12/19 02:30:20;;;;;;;2.00;0.25;;;;;;;8.86;76.68;98663.34;5052182;28;20127;-49
2020/12/19 02:33:07;;;;;;;3.65;0.47;;;;;;;8.84;76.40;98662.91;5056594;28;20045;-51
2020/12/19 02:35:53;;;;;;;3.30;0.38;;;;;;;8.84;76.47;98662.91;5072509;28;20471;-50
2020/12/19 02:38:41;;;;;;;0.98;0.28;;;;;;;8.85;76.43;98655.44;5071722;28;20510;-49
2020/12/19 02:41:28;;;;;;;1.55;0.25;;;;;;;8.83;76.32;98653.09;5072206;28;20063;-54
2020/12/19 02:44:17;;;;;;;2.30;0.30;;;;;;;8.84;76.34;98640.84;5055271;28;20049;-50
2020/12/19 02:47:04;;;;;;;2.40;0.28;;;;;;;8.81;76.30;98622.31;5051979;28;20088;-49
2020/12/19 02:49:50;;;;;;;4.28;0.50;;;;;;;8.79;76.30;98612.84;5088722;28;20044;-50
2020/12/19 02:52:37;;;;;;;6.10;1.77;;;;;;;8.77;76.51;98610.47;5092084;28;20135;-53
2020/12/19 02:55:23;;;;;;;1.73;0.52;;;;;;;8.73;76.43;98615.19;5092565;28;20044;-52
2020/12/19 02:58:10;;;;;;;5.18;1.02;;;;;;;8.72;76.68;98597.03;5091783;28;20040;-49
2020/12/19 03:00:56;;;;;;;3.38;0.60;;;;;;;8.69;76.29;98595.03;5088604;28;20534;-55
2020/12/19 03:03:43;;;;;;;4.63;0.70;;;;;;;8.65;76.85;98602.53;5073197;28;20055;-49
2020/12/19 03:06:46;;;;;;;5.53;0.60;;;;;;;8.60;77.02;98616.66;5079710;28;20059;-52
2020/12/19 03:09:33;;;;;;;2.13;0.40;;;;;;;8.59;76.94;98609.56;5072145;28;20174;-49
2020/12/19 03:12:19;;;;;;;7.60;1.00;;;;;;;8.60;76.67;98616.66;5071140;28;20640;-50
2020/12/19 03:15:06;;;;;;;1.23;0.30;;;;;;;8.61;76.50;98611.94;5071029;28;20170;-51
2020/12/19 03:17:53;;;;;;;3.22;0.43;;;;;;;8.64;76.52;98611.16;5073996;28;20910;-52
2020/12/19 03:20:39;;;;;;;0.47;0.22;;;;;;;8.65;76.42;98618.28;5051373;28;20075;-50
2020/12/19 03:23:26;;;;;;;0.75;0.50;;;;;;;8.65;76.46;98615.50;5050827;28;20064;-53
2020/12/19 03:26:13;;;;;;;4.57;1.45;;;;;;;8.67;76.53;98600.16;5051592;28;20118;-49
2020/12/19 03:28:59;;;;;;;1.25;0.38;;;;;;;8.69;76.65;98602.53;5055020;28;20521;-54
2020/12/19 03:31:46;;;;;;;9.82;1.05;;;;;;;8.68;76.63;98598.19;5065298;28;20130;-50
2020/12/19 03:34:33;;;;;;;1.70;0.50;;;;;;;8.64;76.65;98600.94;5069487;28;20041;-52
2020/12/19 03:37:20;;;;;;;2.58;0.60;;;;;;;8.58;76.81;98586.69;5051561;28;20053;-53
2020/12/19 03:40:06;;;;;;;0.70;0.40;;;;;;;8.53;76.79;98595.34;5050794;28;20049;-52
2020/12/19 03:42:53;;;;;;;3.28;1.55;;;;;;;8.49;76.63;98588.22;5051369;28;20146;-50
2020/12/19 03:45:40;;;;;;;6.32;0.70;;;;;;;8.45;76.58;98582.69;5050954;28;20045;-53
2020/12/19 03:48:27;;;;;;;5.93;0.73;;;;;;;8.45;76.49;98581.88;5065900;28;20500;-50
2020/12/19 03:51:13;;;;;;;8.85;1.65;;;;;;;8.46;76.59;98577.97;5073896;28;20070;-52
2020/12/19 03:54:00;;;;;;;7.68;1.13;;;;;;;8.45;76.42;98576.38;5055631;28;20074;-52
2020/12/19 03:56:47;;;;;;;10.38;1.10;;;;;;;8.46;76.42;98583.47;5050608;28;20199;-53
2020/12/19 03:59:34;;;;;;;9.32;0.82;;;;;;;8.47;76.53;98590.59;5051621;28;20124;-49
2020/12/19 04:02:20;;;;;;;5.88;0.77;;;;;;;8.47;76.61;98585.06;5067654;28;20170;-50
2020/12/19 04:05:09;;;;;;;5.80;1.40;;;;;;;8.51;76.56;98581.16;5055671;28;20133;-50
2020/12/19 04:07:56;;;;;;;18.65;1.73;;;;;;;8.52;76.49;98587.47;5064750;28;20045;-55
2020/12/19 04:10:43;;;;;;;5.18;1.15;;;;;;;8.51;76.58;98588.63;5075661;28;20523;-52
2020/12/19 04:13:29;;;;;;;8.18;1.70;;;;;;;8.48;76.47;98586.63;5073996;28;20127;-52
2020/12/19 04:16:16;;;;;;;19.77;3.67;;;;;;;8.44;76.19;98580.31;5074385;28;20056;-51
2020/12/19 04:19:02;;;;;;;5.22;1.33;;;;;;;8.44;76.49;98585.81;5086738;28;20523;-54
2020/12/19 04:21:49;;;;;;;8.68;1.52;;;;;;;8.44;76.34;98583.06;5094144;28;20092;-51
2020/12/19 04:24:36;;;;;;;5.75;1.45;;;;;;;8.41;76.47;98575.56;5093070;28;20043;-50
2020/12/19 04:27:22;;;;;;;10.68;1.90;;;;;;;8.41;76.29;98575.56;5071183;28;20123;-53
2020/12/19 04:30:09;;;;;;;12.65;2.10;;;;;;;8.40;76.39;98568.44;5054515;28;20139;-50
2020/12/19 04:32:56;;;;;;;11.00;1.75;;;;;;;8.40;76.44;98577.53;5060410;28;20169;-51
2020/12/19 04:35:43;;;;;;;11.30;3.50;;;;;;;8.37;76.49;98569.22;5094569;28;20125;-52
2020/12/19 04:38:30;;;;;;;6.40;1.27;;;;;;;8.37;76.27;98560.94;5094231;28;20043;-51
2020/12/19 04:41:17;;;;;;;9.52;1.75;;;;;;;8.34;76.43;98557.00;5094367;28;20044;-54
2020/12/19 04:44:04;;;;;;;5.47;1.30;;;;;;;8.31;76.40;98546.72;5081682;28;20089;-50
2020/12/19 04:46:51;;;;;;;10.32;2.00;;;;;;;8.31;76.41;98554.22;5073837;28;20075;-53
2020/12/19 04:49:38;;;;;;;10.18;2.05;;;;;;;8.30;76.21;98552.63;5090595;28;20073;-55
2020/12/19 04:52:26;;;;;;;5.38;1.90;;;;;;;8.29;76.28;98557.34;5075602;28;20512;-51
2020/12/19 04:55:12;;;;;;;10.48;1.90;;;;;;;8.31;76.22;98549.47;5074494;28;20563;-51
2020/12/19 04:58:00;;;;;;;13.82;1.98;;;;;;;8.32;76.30;98551.06;5074262;28;20575;-53
2020/12/19 05:00:47;;;;;;;11.32;1.92;;;;;;;8.32;76.16;98548.31;5066853;28;20133;-54
2020/12/19 05:03:35;;;;;;;21.65;4.22;;;;;;;8.32;76.09;98540.03;5070987;28;20047;-50
2020/12/19 05:06:26;;;;;;;15.40;3.15;;;;;;;8.32;75.78;98547.53;5094716;28;20146;-51
2020/12/19 05:09:13;;;;;;;15.13;2.13;;;;;;;8.32;75.88;98544.75;5070339;28;20114;-52
2020/12/19 05:12:01;;;;;;;12.73;2.47;;;;;;;8.35;76.10;98549.50;5068529;28;20354;-50
2020/12/19 05:14:49;;;;;;;11.30;2.38;;;;;;;8.34;75.73;98532.19;5073556;28;20036;-50
2020/12/19 05:17:35;;;;;;;13.77;2.65;;;;;;;8.33;75.49;98516.84;5068988;28;20044;-51
2020/12/19 05:20:29;;;;;;;13.60;3.20;;;;;;;8.32;75.36;98512.47;5059036;28;20137;-49
2020/12/19 05:23:17;;;;;;;14.20;3.75;;;;;;;8.33;74.97;98513.28;5072754;28;20131;-50
2020/12/19 05:26:06;;;;;;;6.32;1.83;;;;;;;8.32;75.16;98517.19;5073445;28;20051;-50
2020/12/19 05:28:59;;;;;;;10.57;2.25;;;;;;;8.28;75.08;98511.69;5072391;28;20132;-49
2020/12/19 05:31:56;;;;;;;11.50;1.58;;;;;;;8.24;74.70;98491.53;5072959;28;20166;-50
2020/12/19 05:34:46;;;;;;;15.60;1.77;;;;;;;8.23;74.80;98497.44;5077341;28;20503;-51
2020/12/19 05:37:32;;;;;;;9.30;2.35;;;;;;;8.25;74.87;98500.59;5039183;28;20071;-50
2020/12/19 05:40:22;;;;;;;9.60;3.22;;;;;;;8.25;74.61;98503.34;5053491;28;20168;-50
2020/12/19 05:43:09;;;;;;;18.17;2.40;;;;;;;8.27;74.70;98503.78;5053225;28;20410;-51
2020/12/19 05:45:56;;;;;;;9.27;1.90;;;;;;;8.26;74.73;98504.94;5053688;28;20120;-51
2020/12/19 05:48:44;;;;;;;11.75;2.53;;;;;;;8.22;74.73;98509.63;5064052;28;20187;-54
2020/12/19 05:51:34;;;;;;;12.45;3.17;;;;;;;8.17;74.83;98498.97;5067661;28;20053;-50
2020/12/19 05:54:22;;;;;;;10.75;1.80;;;;;;;8.12;74.68;98493.81;5053071;28;20073;-48
2020/12/19 05:57:15;;;;;;;28.70;5.63;;;;;;;8.10;74.77;98476.88;5052972;28;20114;-50
2020/12/19 06:00:07;;;;;;;9.98;1.42;;;;;;;8.09;74.83;98484.34;5037871;28;20410;-51
2020/12/19 06:02:56;;;;;;;14.45;2.10;;;;;;;8.07;74.82;98478.44;5075184;28;20405;-50
2020/12/19 06:05:43;;;;;;;16.23;2.72;;;;;;;8.05;74.84;98491.00;5092425;28;20044;-53
2020/12/19 06:08:33;;;;;;;14.00;2.75;;;;;;;8.02;74.67;98495.34;5087062;28;20036;-49
2020/12/19 06:11:23;;;;;;;12.93;1.90;;;;;;;8.03;74.27;98507.13;5072822;28;20048;-51
2020/12/19 06:14:15;;;;;;;8.68;2.25;;;;;;;8.04;73.64;98511.47;5072050;28;20059;-53
2020/12/19 06:17:28;;;;;;;13.25;1.70;;;;;;;8.05;73.25;98513.06;5073991;28;20046;-49
2020/12/19 06:20:16;;;;;;;;;;;;;;;8.01;73.45;98513.03;5078388;28;20048;-50
2020/12/19 06:23:14;;;;;;;8.52;1.65;;;;;;;7.98;73.96;98520.09;5093320;28;19920;-53
2020/12/19 06:26:01;;;;;;;8.60;2.30;;;;;;;7.97;74.26;98535.03;5074776;28;20517;-51
2020/12/19 06:28:49;;;;;;;17.92;4.07;;;;;;;8.02;74.51;98522.09;5054268;28;20043;-49
2020/12/19 06:31:36;;;;;;;8.13;2.17;;;;;;;8.07;74.99;98521.72;5067311;28;20044;-49
2020/12/19 06:34:23;;;;;;;10.68;2.15;;;;;;;8.13;74.69;98520.22;5057356;28;20063;-49
2020/12/19 06:37:19;;;;;;;16.80;1.88;;;;;;;8.15;75.09;98521.41;5071809;28;20072;-49
2020/12/19 06:40:11;;;;;;;16.05;2.17;;;;;;;8.15;75.14;98513.13;5071443;28;20037;-49
2020/12/19 06:43:12;;;;;;;12.90;2.20;;;;;;;8.12;75.12;98507.59;5063720;28;20459;-50
2020/12/19 06:45:59;;;;;;;18.05;3.20;;;;;;;8.09;75.43;98505.59;5052365;28;20044;-50
2020/12/19 06:48:45;;;;;;;18.00;3.83;;;;;;;8.04;75.65;98505.97;5037060;28;20491;-50
2020/12/19 06:52:01;;;;;;;11.90;1.85;;;;;;;8.02;76.25;98502.81;5052472;28;20048;-55
2020/12/19 06:54:49;;;;;;;11.73;2.08;;;;;;;8.02;76.07;98483.50;5052640;28;20071;-51
2020/12/19 06:57:35;;;;;;;14.70;2.47;;;;;;;7.98;76.33;98489.78;5038308;28;19920;-49
2020/12/19 07:00:24;;;;;;;10.13;2.60;;;;;;;7.92;76.62;98491.31;5055725;28;20171;-51
2020/12/19 07:03:11;;;;;;;17.85;2.88;;;;;;;7.87;77.00;98486.16;5076651;28;20490;-50
2020/12/19 07:06:08;;;;;;;21.10;3.15;;;;;;;7.82;77.33;98471.94;5091813;28;20128;-48
2020/12/19 07:09:27;;;;;;;8.52;2.25;;;;;;;7.77;77.55;98478.59;5092226;28;20043;-49
2020/12/19 07:12:31;;;;;;;15.15;2.42;;;;;;;7.75;77.81;98475.44;5063360;28;20045;-49
2020/12/19 07:15:43;;;;;;;11.35;4.25;;;;;;;7.74;78.58;98468.34;5056668;28;20047;-49
2020/12/19 07:18:32;;;;;;;20.35;2.80;;;;;;;7.73;77.78;98466.75;5053512;28;20048;-51
2020/12/19 07:21:19;;;;;;;22.30;4.88;;;;;;;7.73;78.20;98454.97;5076606;28;20053;-49
2020/12/19 07:24:06;;;;;;;13.25;3.90;;;;;;;7.73;78.36;98446.72;5084909;28;20050;-48
2020/12/19 07:26:52;;;;;;;18.20;2.75;;;;;;;7.77;78.59;98447.50;5091963;28;20054;-51
2020/12/19 07:29:39;;;;;;;15.45;2.58;;;;;;;7.82;78.74;98456.22;5091987;28;20055;-53
2020/12/19 07:32:26;;;;;;;17.85;2.75;;;;;;;7.89;78.79;98458.22;5077570;28;20401;-51
2020/12/19 07:35:13;;;;;;;16.90;3.30;;;;;;;7.94;78.92;98439.34;5054092;28;20124;-49
2020/12/19 07:38:01;;;;;;;18.02;3.83;;;;;;;7.94;78.67;98446.84;5056035;28;20175;-50
2020/12/19 07:40:57;;;;;;;14.30;2.63;;;;;;;7.89;79.17;98450.75;5055954;28;20049;-51
2020/12/19 07:43:43;;;;;;;11.60;2.33;;;;;;;7.88;78.74;98448.38;5055080;28;20063;-51
2020/12/19 07:46:30;;;;;;;20.77;3.00;;;;;;;7.86;78.64;98447.97;5067092;28;20045;-50
2020/12/19 07:49:24;;;;;;;13.32;2.72;;;;;;;7.83;78.70;98435.75;5088795;28;20059;-50
2020/12/19 07:52:18;;;;;;;10.00;2.05;;;;;;;7.78;78.62;98447.13;5076163;28;20045;-56
2020/12/19 07:55:05;;;;;;;11.38;2.03;;;;;;;7.75;78.41;98445.16;5075068;28;20117;-54
2020/12/19 07:57:55;;;;;;;9.77;1.98;;;;;;;7.73;78.30;98441.97;5075947;28;20048;-51
2020/12/19 08:00:41;;;;;;;5.60;1.23;;;;;;;7.75;78.11;98450.66;5074517;28;20072;-50
2020/12/19 08:03:28;;;;;;;5.68;1.27;;;;;;;7.79;77.96;98445.16;5074609;28;20036;-54
2020/12/19 08:06:15;;;;;;;5.43;1.40;;;;;;;7.83;77.71;98441.28;5075513;28;20040;-50
2020/12/19 08:09:02;;;;;;;6.30;1.30;;;;;;;7.89;77.87;98436.16;5062679;28;20138;-52
2020/12/19 08:11:50;;;;;;;7.75;1.67;;;;;;;7.92;77.02;98438.97;5074399;28;20121;-50
2020/12/19 08:14:39;;;;;;;9.40;0.98;;;;;;;7.96;77.49;98442.53;5083465;28;20527;-52
2020/12/19 08:17:26;;;;;;;8.77;2.08;;;;;;;7.99;77.15;98438.22;5080296;28;20383;-52
2020/12/19 08:20:16;;;;;;;13.60;2.03;;;;;;;8.02;77.30;98436.66;5094434;28;20083;-49
2020/12/19 08:23:06;;;;;;;12.07;2.53;;;;;;;8.08;77.08;98435.09;5095403;28;20402;-52
2020/12/19 08:25:52;;;;;;;7.97;1.23;;;;;;;8.10;76.95;98432.78;5070999;28;20105;-49
2020/12/19 08:28:39;;;;;;;6.90;1.25;;;;;;;8.11;76.99;98439.84;5075002;28;20041;-49
2020/12/19 08:31:27;;;;;;;6.20;1.60;;;;;;;8.12;77.03;98427.66;5075648;28;20044;-51
2020/12/19 08:34:15;;;;;;;13.77;2.33;;;;;;;8.12;77.31;98442.25;5088269;28;20101;-50
2020/12/19 08:37:01;;;;;;;7.93;1.35;;;;;;;8.14;77.45;98455.63;5095792;28;20056;-50
2020/12/19 08:40:22;;;;;;;3.03;0.82;;;;;;;8.12;77.08;98463.50;5094174;28;20131;-51
2020/12/19 08:43:11;;;;;;;3.00;1.08;;;;;;;8.13;77.19;98467.84;5058924;28;20494;-51
2020/12/19 08:46:07;;;;;;;4.88;1.60;;;;;;;8.13;76.76;98470.59;5054882;28;20049;-54
2020/12/19 08:48:59;;;;;;;6.78;1.42;;;;;;;8.16;76.55;98461.53;5053718;28;20160;-54
2020/12/19 08:51:50;;;;;;;7.53;1.70;;;;;;;8.18;76.66;98478.50;5072128;28;20048;-54
2020/12/19 08:54:37;;;;;;;5.70;0.90;;;;;;;8.20;76.58;98487.19;5074070;28;20170;-51
2020/12/19 08:57:33;;;;;;;5.68;0.65;;;;;;;8.20;75.67;98478.91;5055038;28;20078;-50
2020/12/19 09:00:20;;;;;;;8.30;0.80;;;;;;;8.22;76.25;98484.81;5066276;28;20074;-53
2020/12/19 09:03:10;;;;;;;6.80;0.95;;;;;;;8.21;75.11;98469.44;5066231;28;20944;-51
2020/12/19 09:06:13;;;;;;;5.72;1.10;;;;;;;8.21;75.63;98483.22;5076061;28;20048;-54
2020/12/19 09:08:59;;;;;;;6.00;1.55;;;;;;;8.24;75.76;98476.94;5063205;28;20048;-51
2020/12/19 09:11:46;;;;;;;5.80;2.40;;;;;;;8.25;75.73;98473.03;5073374;28;20095;-49
2020/12/19 09:14:33;;;;;;;3.83;0.85;;;;;;;8.23;75.78;98483.66;5053755;28;20088;-52
2020/12/19 09:17:30;;;;;;;4.63;0.90;;;;;;;8.20;74.68;98487.19;5073506;28;20101;-53
2020/12/19 09:20:17;;;;;;;1.95;0.60;;;;;;;8.22;75.35;98484.81;5073443;28;20047;-52
2020/12/19 09:23:04;;;;;;;3.47;0.50;;;;;;;8.21;75.04;98489.53;5073558;28;20062;-50
2020/12/19 09:25:53;;;;;;;2.80;0.77;;;;;;;8.21;75.07;98488.72;5082180;28;20051;-51
2020/12/19 09:28:40;;;;;;;2.78;0.60;;;;;;;8.22;75.06;98495.84;5086491;28;20163;-51
2020/12/19 09:31:28;;;;;;;2.83;0.68;;;;;;;8.22;74.81;98479.31;5058236;28;20484;-54
2020/12/19 09:34:15;;;;;;;7.03;1.10;;;;;;;8.23;74.53;98513.97;5072193;28;20044;-51
2020/12/19 09:37:01;;;;;;;7.63;0.90;;;;;;;8.24;74.53;98505.31;5072003;28;20044;-53
2020/12/19 09:39:49;;;;;;;3.90;0.95;;;;;;;8.25;74.69;98495.88;5072922;28;20453;-54
2020/12/19 09:42:36;;;;;;;4.55;0.57;;;;;;;8.24;74.58;98504.50;5055607;28;20422;-54
2020/12/19 09:45:23;;;;;;;4.65;1.20;;;;;;;8.21;74.01;98505.28;5070697;28;20846;-54
2020/12/19 09:48:10;;;;;;;5.15;1.13;;;;;;;8.19;73.77;98518.66;5070028;28;20186;-54
2020/12/19 09:50:57;;;;;;;3.88;0.77;;;;;;;8.22;74.15;98523.41;5055744;28;20060;-53
2020/12/19 09:53:44;;;;;;;2.55;0.50;;;;;;;8.24;74.11;98527.34;5070019;28;20178;-54
2020/12/19 09:56:39;;;;;;;1.67;0.63;;;;;;;8.26;74.09;98529.75;5069163;28;20127;-52
2020/12/19 09:59:26;;;;;;;3.67;0.60;;;;;;;8.28;73.97;98543.97;5071180;28;20044;-52
2020/12/19 10:02:12;;;;;;;2.30;0.47;;;;;;;8.26;73.93;98546.28;5070901;28;20082;-51
2020/12/19 10:04:59;;;;;;;1.25;0.60;;;;;;;8.23;73.74;98544.28;5046754;28;20387;-52
2020/12/19 10:07:45;;;;;;;1.48;0.40;;;;;;;8.24;73.80;98535.63;5069238;28;20040;-53
2020/12/19 10:10:34;;;;;;;1.30;0.22;;;;;;;8.21;73.69;98535.59;5074479;28;20510;-55
2020/12/19 10:13:22;;;;;;;2.83;0.30;;;;;;;8.15;73.77;98539.91;5071665;28;20721;-50
2020/12/19 10:16:08;;;;;;;2.63;0.55;;;;;;;8.09;73.68;98542.22;5088451;28;20060;-56
2020/12/19 10:18:55;;;;;;;2.35;0.60;;;;;;;8.03;73.76;98554.75;5086571;28;20052;-55
2020/12/19 10:21:41;;;;;;;3.47;0.73;;;;;;;7.98;73.95;98553.16;5074424;28;20123;-55
2020/12/19 10:24:29;;;;;;;2.22;0.45;;;;;;;7.97;73.84;98567.28;5058880;28;20049;-55
2020/12/19 10:27:16;;;;;;;7.22;0.60;;;;;;;7.95;73.86;98547.59;5066559;28;20083;-55
2020/12/19 10:30:03;;;;;;;7.13;0.60;;;;;;;7.92;73.79;98560.19;5078721;28;20170;-54
2020/12/19 10:32:50;;;;;;;2.72;0.82;;;;;;;7.89;73.81;98552.66;5050659;28;20128;-55
2020/12/19 10:35:36;;;;;;;4.13;1.70;;;;;;;7.92;74.01;98571.19;5074699;28;20036;-56
2020/12/19 10:38:23;;;;;;;2.30;0.57;;;;;;;7.90;74.12;98576.31;5071885;28;20101;-55
2020/12/19 10:41:19;;;;;;;6.10;2.17;;;;;;;7.88;74.41;98575.91;5056773;28;20064;-59
2020/12/19 10:44:10;;;;;;;6.20;0.63;;;;;;;7.90;74.42;98570.78;5067382;28;20063;-54
2020/12/19 10:46:58;;;;;;;3.50;0.60;;;;;;;7.87;74.20;98574.31;5071083;28;20387;-56
2020/12/19 10:49:45;;;;;;;4.95;0.82;;;;;;;7.88;74.21;98584.16;5075546;28;20047;-57
2020/12/19 10:52:32;;;;;;;4.32;0.77;;;;;;;7.87;74.09;98585.31;5076482;28;20124;-56
2020/12/19 10:55:18;;;;;;;4.18;0.63;;;;;;;7.89;74.21;98577.47;5069495;28;20139;-55
2020/12/19 10:58:05;;;;;;;8.52;1.20;;;;;;;7.89;73.99;98588.47;5068585;28;20131;-54
2020/12/19 11:00:52;;;;;;;5.80;1.17;;;;;;;7.89;73.89;98594.00;5074343;28;20047;-54
2020/12/19 11:03:40;;;;;;;5.28;0.80;;;;;;;7.89;73.86;98588.47;5075140;28;20544;-54
2020/12/19 11:06:27;;;;;;;3.83;0.90;;;;;;;7.93;73.93;98589.31;5057137;28;20180;-51
2020/12/19 11:09:14;;;;;;;8.60;1.77;;;;;;;7.95;73.64;98584.22;5055793;28;20041;-57
2020/12/19 11:12:00;;;;;;;3.53;0.85;;;;;;;7.97;73.88;98587.38;5072597;28;20134;-54
2020/12/19 11:14:47;;;;;;;6.00;1.15;;;;;;;7.96;73.65;98593.28;5068065;28;20049;-55
2020/12/19 11:17:34;;;;;;;9.10;1.25;;;;;;;7.96;73.46;98596.84;5054974;28;20049;-56
2020/12/19 11:20:22;;;;;;;8.23;1.20;;;;;;;7.93;73.58;98594.84;5064524;28;20052;-57
2020/12/19 11:23:08;;;;;;;11.07;1.40;;;;;;;7.92;73.43;98596.00;5085160;28;20135;-56
2020/12/19 11:25:55;;;;;;;6.22;1.52;;;;;;;7.92;73.73;98584.97;5062835;28;20446;-56
2020/12/19 11:28:42;;;;;;;7.20;1.33;;;;;;;7.90;73.61;98601.09;5074052;28;20079;-56
2020/12/19 11:31:29;;;;;;;4.25;1.10;;;;;;;7.86;73.49;98589.25;5054430;28;20051;-58
2020/12/19 11:34:15;;;;;;;8.85;1.77;;;;;;;7.85;73.61;98584.91;5059304;28;20139;-54
2020/12/19 11:37:02;;;;;;;12.13;1.17;;;;;;;7.83;73.50;98573.50;5075868;28;20979;-54
2020/12/19 11:39:48;;;;;;;6.00;1.35;;;;;;;7.84;73.36;98594.34;5068636;28;20105;-53
2020/12/19 11:42:37;;;;;;;6.97;1.20;;;;;;;7.89;73.37;98593.19;5043074;28;20048;-56
2020/12/19 11:45:24;;;;;;;1.88;0.80;;;;;;;7.90;73.43;98609.38;5083845;28;20048;-50
2020/12/19 11:48:11;;;;;;;4.40;0.85;;;;;;;7.89;73.39;98596.75;5087975;28;20125;-55
2020/12/19 11:50:57;;;;;;;11.07;1.90;;;;;;;7.84;73.40;98591.59;5069135;28;20048;-53
2020/12/19 11:53:44;;;;;;;5.22;1.20;;;;;;;7.83;73.45;98601.03;5083574;28;20059;-53
2020/12/19 11:56:36;;;;;;;6.22;1.88;;;;;;;7.84;73.48;98607.31;5073937;28;20486;-52
2020/12/19 11:59:23;;;;;;;9.48;1.52;;;;;;;7.80;73.51;98607.31;5083881;28;20113;-50
2020/12/19 12:02:10;;;;;;;6.93;1.85;;;;;;;7.82;73.38;98591.19;5063820;28;20151;-49
2020/12/19 12:04:56;;;;;;;5.07;0.93;;;;;;;7.83;73.56;98609.31;5089250;28;20404;-50
2020/12/19 12:07:43;;;;;;;11.02;1.17;;;;;;;7.85;73.32;98606.97;5076515;28;20104;-52
2020/12/19 12:10:30;;;;;;;6.55;1.25;;;;;;;7.89;73.32;98593.19;5055150;28;20041;-52
2020/12/19 12:13:17;;;;;;;5.57;1.17;;;;;;;7.95;73.44;98611.78;5072474;28;20130;-53
2020/12/19 12:16:08;;;;;;;10.45;1.40;;;;;;;8.04;73.37;98589.41;5066642;28;20056;-55
2020/12/19 12:18:58;;;;;;;7.88;1.60;;;;;;;8.16;72.99;98602.09;5080451;28;20036;-53
2020/12/19 12:21:45;;;;;;;4.28;0.80;;;;;;;8.24;72.94;98595.47;5084844;28;20051;-55
2020/12/19 12:24:32;;;;;;;8.57;1.75;;;;;;;8.30;72.96;98596.75;5064500;28;20059;-51
2020/12/19 12:27:19;;;;;;;6.60;1.45;;;;;;;8.33;72.63;98607.00;5073457;28;20105;-53
2020/12/19 12:30:07;;;;;;;10.73;1.67;;;;;;;8.36;72.67;98595.22;5072981;28;20045;-54
2020/12/19 12:32:53;;;;;;;8.63;1.52;;;;;;;8.35;72.53;98599.13;5079431;28;20126;-51
2020/12/19 12:35:40;;;;;;;7.18;1.35;;;;;;;8.33;72.46;98601.50;5057024;28;20139;-51
2020/12/19 12:38:27;;;;;;;7.85;1.50;;;;;;;8.27;72.48;98603.00;5049551;28;20500;-52
2020/12/19 12:41:13;;;;;;;8.18;1.45;;;;;;;8.24;72.63;98607.28;5070992;28;20557;-50
2020/12/19 12:44:00;;;;;;;7.68;4.25;;;;;;;8.23;72.68;98616.75;5072717;28;20056;-50
2020/12/19 12:46:48;;;;;;;6.47;1.63;;;;;;;8.23;72.45;98624.22;5072039;28;20130;-50
2020/12/19 12:49:35;;;;;;;4.13;1.08;;;;;;;8.25;72.42;98621.88;5072221;28;20056;-52
2020/12/19 12:52:22;;;;;;;7.68;1.45;;;;;;;8.29;72.42;98619.97;5079179;28;20048;-53
2020/12/19 12:55:08;;;;;;;10.23;1.30;;;;;;;8.33;72.31;98612.53;5074255;28;20033;-50
2020/12/19 12:57:55;;;;;;;5.05;1.77;;;;;;;8.36;72.18;98628.31;5064507;28;20044;-51
2020/12/19 13:00:41;;;;;;;4.65;1.35;;;;;;;8.36;72.09;98622.78;5072558;28;20134;-51
2020/12/19 13:03:28;;;;;;;7.00;1.33;;;;;;;8.41;72.17;98614.16;5052147;28;20045;-49
2020/12/19 13:06:15;;;;;;;7.80;1.20;;;;;;;8.44;72.08;98608.69;5070137;28;20138;-56
2020/12/19 13:09:02;;;;;;;6.03;1.92;;;;;;;8.52;71.96;98604.78;5072845;28;20059;-50
2020/12/19 13:11:53;;;;;;;8.70;1.42;;;;;;;8.59;71.46;98609.56;5072130;28;20127;-49
2020/12/19 13:14:39;;;;;;;6.90;1.70;;;;;;;8.65;71.86;98616.31;5053245;28;20140;-52
2020/12/19 13:17:26;;;;;;;7.90;1.75;;;;;;;8.67;71.29;98633.25;5056274;28;20049;-49
2020/12/19 13:20:12;;;;;;;3.97;1.20;;;;;;;8.62;71.03;98619.03;5072493;28;20126;-49